Time;durP1;ratioP1;P1;durP2;ratioP2;P2;SDS_P1;SDS_P2;PMS_P1;PMS_P2;Temp;Humidity;BMP_temperature;BMP_pressure;BME280_temperature;BME280_humidity;BME280_pressure;Samples;Min_cycle;Max_cycle;Signal;HPM_P1;HPM_P2
2023/06/09 00:00:18;;;;;;;9.35;6.20;;;22.00;89.20;;;;;;4195695;28;20040;-63
2023/06/09 00:02:23;;;;;;;9.27;6.45;;;22.00;89.40;;;;;;4213368;28;20094;-59
2023/06/09 00:04:26;;;;;;;6.90;6.03;;;22.00;89.30;;;;;;4212714;28;20507;-59
2023/06/09 00:06:30;;;;;;;10.45;6.07;;;22.00;89.40;;;;;;4213395;28;20210;-60
2023/06/09 00:08:32;;;;;;;11.20;6.50;;;22.00;89.50;;;;;;4213597;28;20055;-59
2023/06/09 00:10:34;;;;;;;12.07;6.10;;;22.00;89.70;;;;;;4195678;28;20106;-61
2023/06/09 00:12:37;;;;;;;12.20;6.53;;;21.90;89.80;;;;;;4213505;28;20048;-60
2023/06/09 00:14:39;;;;;;;11.15;7.28;;;22.00;90.00;;;;;;4212709;28;20143;-62
2023/06/09 00:16:45;;;;;;;6.80;5.82;;;21.90;90.20;;;;;;4194969;28;20044;-59
2023/06/09 00:18:49;;;;;;;13.70;6.70;;;21.90;90.10;;;;;;4213401;28;20098;-59
2023/06/09 00:20:51;;;;;;;8.85;6.35;;;21.80;90.20;;;;;;4213603;28;20040;-61
2023/06/09 00:22:55;;;;;;;9.30;6.20;;;21.80;90.20;;;;;;4195479;28;20140;-59
2023/06/09 00:24:57;;;;;;;7.97;6.05;;;21.70;90.40;;;;;;4212596;28;20047;-59
2023/06/09 00:26:59;;;;;;;8.95;6.22;;;21.70;90.80;;;;;;4204680;28;20053;-59
2023/06/09 00:29:01;;;;;;;16.83;7.47;;;21.70;90.60;;;;;;4196599;28;20128;-59
2023/06/09 00:31:04;;;;;;;12.07;6.57;;;21.60;90.70;;;;;;4196209;28;20048;-61
2023/06/09 00:33:09;;;;;;;8.52;6.50;;;21.50;90.80;;;;;;4196696;28;20053;-63
2023/06/09 00:35:13;;;;;;;11.38;6.72;;;21.50;90.80;;;;;;4195595;28;20098;-61
2023/06/09 00:37:15;;;;;;;10.40;7.07;;;21.50;91.00;;;;;;4196602;28;20132;-61
2023/06/09 00:39:17;;;;;;;7.90;7.05;;;21.40;91.00;;;;;;4196730;28;20052;-62
2023/06/09 00:41:19;;;;;;;8.70;6.38;;;21.40;91.10;;;;;;4196639;28;20131;-63
2023/06/09 00:43:21;;;;;;;14.00;7.10;;;21.40;91.10;;;;;;4196600;28;20064;-62
2023/06/09 00:45:23;;;;;;;8.82;6.13;;;21.30;91.20;;;;;;4195547;28;20048;-61
2023/06/09 00:47:26;;;;;;;9.50;6.50;;;21.30;91.20;;;;;;4197252;28;20056;-61
2023/06/09 00:49:29;;;;;;;12.15;6.68;;;21.30;91.30;;;;;;4196991;28;20051;-61
2023/06/09 00:51:35;;;;;;;10.23;7.25;;;21.30;91.30;;;;;;4200058;28;20052;-62
2023/06/09 00:53:37;;;;;;;10.27;6.57;;;21.30;91.30;;;;;;4216116;28;20115;-62
2023/06/09 00:55:40;;;;;;;8.18;6.80;;;21.20;91.30;;;;;;4215230;28;20052;-65
2023/06/09 00:57:43;;;;;;;7.68;6.75;;;21.20;91.40;;;;;;4216371;28;20094;-60
2023/06/09 00:59:45;;;;;;;8.70;6.65;;;21.30;91.30;;;;;;4216137;28;20105;-59
2023/06/09 01:01:48;;;;;;;7.45;6.53;;;21.30;91.40;;;;;;4215882;28;20048;-59
2023/06/09 01:03:50;;;;;;;9.00;6.43;;;21.20;91.50;;;;;;4215932;28;20481;-59
2023/06/09 01:05:59;;;;;;;12.32;7.20;;;21.20;91.60;;;;;;4215060;28;20051;-59
2023/06/09 01:08:09;;;;;;;8.95;7.00;;;21.20;91.70;;;;;;4216234;28;20044;-59
2023/06/09 01:10:18;;;;;;;13.27;6.82;;;21.10;91.70;;;;;;4215856;28;20465;-61
2023/06/09 01:12:31;;;;;;;7.88;6.53;;;21.10;91.80;;;;;;4215983;28;20485;-61
2023/06/09 01:14:41;;;;;;;13.52;6.68;;;21.10;91.90;;;;;;4214826;28;20040;-61
2023/06/09 01:16:52;;;;;;;12.23;7.07;;;21.00;92.00;;;;;;4215786;28;20340;-61
2023/06/09 01:18:57;;;;;;;13.80;7.60;;;20.90;92.10;;;;;;4215937;28;20047;-61
2023/06/09 01:21:14;;;;;;;11.88;6.95;;;20.90;92.20;;;;;;4215756;28;20054;-60
2023/06/09 01:23:28;;;;;;;7.50;6.45;;;20.90;92.30;;;;;;4215818;28;20077;-61
2023/06/09 01:25:37;;;;;;;9.65;6.63;;;20.80;92.40;;;;;;4214881;28;20055;-61
2023/06/09 01:27:44;;;;;;;11.13;6.72;;;20.80;92.40;;;;;;4201721;28;20127;-61
2023/06/09 01:29:47;;;;;;;9.48;7.07;;;20.70;92.50;;;;;;4198870;28;20056;-61
2023/06/09 01:31:50;;;;;;;11.95;7.07;;;20.70;92.60;;;;;;4182106;28;20101;-63
2023/06/09 01:33:53;;;;;;;8.55;6.88;;;20.70;92.60;;;;;;4199778;28;20063;-62
2023/06/09 01:35:57;;;;;;;12.75;7.50;;;20.70;92.70;;;;;;4198835;28;20485;-61
2023/06/09 01:38:00;;;;;;;13.85;7.15;;;20.60;92.80;;;;;;4199035;28;20049;-62
2023/06/09 01:40:03;;;;;;;13.27;6.32;;;20.60;92.90;;;;;;4198825;28;20471;-62
2023/06/09 01:42:07;;;;;;;7.97;6.72;;;20.50;93.00;;;;;;4198945;28;20418;-61
2023/06/09 01:44:10;;;;;;;14.75;7.70;;;20.50;93.10;;;;;;4198092;28;20470;-63
2023/06/09 01:46:12;;;;;;;16.15;7.53;;;20.50;93.20;;;;;;4197673;28;20045;-62
2023/06/09 01:48:23;;;;;;;10.35;7.53;;;20.40;93.30;;;;;;4198516;28;20045;-62
2023/06/09 01:50:33;;;;;;;12.23;7.55;;;20.40;93.40;;;;;;4198764;28;20151;-62
2023/06/09 01:52:41;;;;;;;13.00;7.05;;;20.40;93.40;;;;;;4209729;28;20043;-62
2023/06/09 01:54:52;;;;;;;10.43;6.95;;;20.30;93.60;;;;;;4214729;28;20102;-61
2023/06/09 01:56:58;;;;;;;12.45;7.50;;;20.30;93.60;;;;;;4215247;28;20068;-62
2023/06/09 01:59:08;;;;;;;8.80;6.55;;;20.30;93.70;;;;;;4214826;28;20052;-62
2023/06/09 02:01:12;;;;;;;10.68;7.85;;;20.30;93.70;;;;;;4214994;28;20055;-61
2023/06/09 02:03:17;;;;;;;9.13;7.28;;;20.20;93.80;;;;;;4214881;28;20135;-61
2023/06/09 02:05:22;;;;;;;10.35;8.02;;;20.20;93.90;;;;;;4213994;28;20060;-61
2023/06/09 02:07:25;;;;;;;12.82;7.72;;;20.10;94.20;;;;;;4196990;28;20047;-61
2023/06/09 02:09:28;;;;;;;12.27;7.30;;;20.00;94.10;;;;;;4215015;28;20047;-61
2023/06/09 02:11:30;;;;;;;10.95;7.30;;;20.00;94.30;;;;;;4214856;28;20532;-62
2023/06/09 02:13:32;;;;;;;9.68;7.35;;;20.00;94.40;;;;;;4214424;28;20056;-61
2023/06/09 02:15:35;;;;;;;10.90;7.32;;;20.00;94.40;;;;;;4214225;28;20448;-59
2023/06/09 02:17:39;;;;;;;14.43;7.72;;;20.00;94.50;;;;;;4215027;28;20079;-61
2023/06/09 02:19:41;;;;;;;10.18;7.43;;;19.90;94.50;;;;;;4214929;28;20109;-62
2023/06/09 02:21:44;;;;;;;9.68;7.28;;;20.00;94.60;;;;;;4214961;28;20496;-62
2023/06/09 02:23:46;;;;;;;11.73;7.90;;;19.90;94.60;;;;;;4214834;28;20048;-59
2023/06/09 02:25:48;;;;;;;8.68;7.38;;;19.90;94.50;;;;;;4213983;28;20090;-59
2023/06/09 02:27:50;;;;;;;12.15;7.68;;;20.00;94.50;;;;;;4198844;28;20051;-61
2023/06/09 02:29:52;;;;;;;13.15;7.10;;;19.90;94.70;;;;;;4198034;28;20049;-59
2023/06/09 02:31:58;;;;;;;9.93;7.85;;;19.90;94.70;;;;;;4198282;28;20126;-62
2023/06/09 02:34:01;;;;;;;10.32;7.10;;;19.90;94.60;;;;;;4198274;28;20049;-62
2023/06/09 02:36:03;;;;;;;11.80;7.72;;;19.90;94.60;;;;;;4197011;28;20051;-61
2023/06/09 02:38:06;;;;;;;11.27;7.90;;;19.90;94.70;;;;;;4197842;28;20045;-63
2023/06/09 02:40:10;;;;;;;10.13;7.93;;;19.90;94.80;;;;;;4197929;28;20072;-61
2023/06/09 02:42:12;;;;;;;10.00;7.07;;;19.90;94.80;;;;;;4197851;28;20371;-62
2023/06/09 02:44:15;;;;;;;10.15;7.28;;;19.80;94.90;;;;;;4197448;28;20540;-62
2023/06/09 02:46:17;;;;;;;9.15;7.20;;;19.80;94.90;;;;;;4196677;28;20498;-62
2023/06/09 02:48:21;;;;;;;14.00;7.38;;;19.80;94.80;;;;;;4197643;28;20072;-61
2023/06/09 02:50:23;;;;;;;10.48;7.68;;;19.80;94.80;;;;;;4196560;28;20044;-61
2023/06/09 02:52:28;;;;;;;8.25;6.95;;;19.80;94.90;;;;;;4207113;28;20044;-63
2023/06/09 02:54:30;;;;;;;;;;;19.70;95.00;;;;;;4214787;28;20477;-61
2023/06/09 02:56:32;;;;;;;11.18;7.32;;;19.70;95.10;;;;;;4212833;28;19955;-61
2023/06/09 02:58:34;;;;;;;11.45;7.97;;;19.60;95.20;;;;;;4214405;28;20093;-61
2023/06/09 03:00:36;;;;;;;12.55;7.70;;;19.60;95.30;;;;;;4196299;28;20045;-61
2023/06/09 03:02:41;;;;;;;10.68;7.20;;;19.50;95.40;;;;;;4213875;28;20490;-61
2023/06/09 03:04:45;;;;;;;11.38;7.90;;;19.50;95.40;;;;;;4213433;28;20051;-60
2023/06/09 03:06:50;;;;;;;9.70;7.57;;;19.50;95.60;;;;;;4195912;28;20182;-60
2023/06/09 03:08:52;;;;;;;;;;;19.50;95.60;;;;;;4214838;28;20959;-61
2023/06/09 03:10:54;;;;;;;10.15;7.85;;;19.50;95.70;;;;;;4196043;28;19927;-59
2023/06/09 03:12:58;;;;;;;9.73;7.88;;;19.40;95.70;;;;;;4214138;28;20043;-62
2023/06/09 03:15:00;;;;;;;10.70;7.65;;;19.40;95.60;;;;;;4213189;28;20101;-60
2023/06/09 03:17:04;;;;;;;8.82;7.25;;;19.40;95.70;;;;;;4213842;28;20044;-62
2023/06/09 03:19:07;;;;;;;9.23;7.60;;;19.40;95.80;;;;;;4213962;28;20508;-62
2023/06/09 03:21:13;;;;;;;12.40;8.27;;;19.50;95.60;;;;;;4196106;28;20113;-62
2023/06/09 03:23:15;;;;;;;8.95;7.32;;;19.40;95.60;;;;;;4213933;28;20048;-62
2023/06/09 03:25:19;;;;;;;11.02;7.80;;;19.40;95.60;;;;;;4214183;28;20072;-60
2023/06/09 03:27:21;;;;;;;14.65;8.00;;;19.40;95.70;;;;;;4203920;28;20378;-60
2023/06/09 03:29:23;;;;;;;8.50;7.22;;;19.40;95.70;;;;;;4198788;28;20064;-60
2023/06/09 03:31:25;;;;;;;8.70;7.13;;;19.40;95.70;;;;;;4197946;28;20049;-59
2023/06/09 03:33:29;;;;;;;12.02;7.55;;;19.40;95.70;;;;;;4197093;28;20384;-59
2023/06/09 03:35:31;;;;;;;8.85;7.45;;;19.40;95.60;;;;;;4196528;28;20048;-59
2023/06/09 03:37:35;;;;;;;9.77;7.65;;;19.40;95.50;;;;;;4179220;28;20453;-59
2023/06/09 03:39:37;;;;;;;7.90;6.97;;;19.40;95.50;;;;;;4197000;28;20051;-58
2023/06/09 03:41:39;;;;;;;9.85;7.38;;;19.40;95.60;;;;;;4196940;28;20049;-62
2023/06/09 03:43:41;;;;;;;10.13;7.68;;;19.40;95.60;;;;;;4196850;28;20481;-59
2023/06/09 03:45:43;;;;;;;8.18;7.38;;;19.50;95.60;;;;;;4195925;28;20120;-60
2023/06/09 03:47:46;;;;;;;8.27;7.30;;;19.50;95.50;;;;;;4197191;28;20050;-59
2023/06/09 03:49:48;;;;;;;11.93;7.75;;;19.50;95.40;;;;;;4197180;28;20119;-58
2023/06/09 03:51:50;;;;;;;11.95;7.78;;;19.50;95.40;;;;;;4201546;28;20055;-59
2023/06/09 03:53:53;;;;;;;11.77;8.00;;;19.50;95.40;;;;;;4213760;28;20102;-58
2023/06/09 03:55:56;;;;;;;13.98;8.88;;;19.50;95.50;;;;;;4212691;28;20043;-60
2023/06/09 03:57:58;;;;;;;10.80;7.93;;;19.30;95.60;;;;;;4213629;28;20093;-59
2023/06/09 04:00:00;;;;;;;10.00;6.90;;;19.50;95.40;;;;;;4213545;28;20047;-59
2023/06/09 04:02:02;;;;;;;11.82;7.45;;;19.50;95.50;;;;;;4213540;28;20048;-58
2023/06/09 04:04:05;;;;;;;10.48;7.47;;;19.50;95.40;;;;;;4213524;28;20174;-61
2023/06/09 04:06:09;;;;;;;10.65;7.10;;;19.50;95.30;;;;;;4212443;28;20044;-62
2023/06/09 04:08:12;;;;;;;10.27;7.22;;;19.50;95.40;;;;;;4195887;28;20449;-58
2023/06/09 04:10:15;;;;;;;17.48;8.77;;;19.50;95.40;;;;;;4213307;28;20044;-58
2023/06/09 04:12:18;;;;;;;15.07;8.45;;;19.40;95.50;;;;;;4213492;28;20044;-59
2023/06/09 04:14:21;;;;;;;17.08;8.18;;;19.40;95.60;;;;;;4213763;28;20418;-59
2023/06/09 04:16:23;;;;;;;9.77;7.43;;;19.40;95.60;;;;;;4213069;28;20044;-60
2023/06/09 04:18:26;;;;;;;12.52;7.53;;;19.40;95.60;;;;;;4214710;28;20068;-58
2023/06/09 04:20:29;;;;;;;14.13;7.40;;;19.30;95.60;;;;;;4214032;28;20067;-58
2023/06/09 04:22:31;;;;;;;16.08;8.25;;;19.30;95.60;;;;;;4195935;28;20048;-59
2023/06/09 04:24:34;;;;;;;11.55;8.02;;;19.30;95.70;;;;;;4195416;28;20044;-59
2023/06/09 04:26:39;;;;;;;12.77;7.95;;;19.30;95.80;;;;;;4211543;28;20076;-58
2023/06/09 04:28:41;;;;;;;17.73;7.93;;;19.30;95.80;;;;;;4200333;28;20053;-61
2023/06/09 04:30:44;;;;;;;10.27;7.90;;;19.20;95.90;;;;;;4199994;28;20048;-59
2023/06/09 04:32:49;;;;;;;12.98;7.90;;;19.20;96.00;;;;;;4182315;28;20517;-59
2023/06/09 04:34:52;;;;;;;15.65;7.75;;;19.10;96.10;;;;;;4199884;28;20118;-59
2023/06/09 04:36:56;;;;;;;14.55;8.43;;;19.10;96.20;;;;;;4198810;28;20087;-59
2023/06/09 04:38:59;;;;;;;14.82;8.55;;;19.10;96.20;;;;;;4199431;28;20052;-59
2023/06/09 04:41:02;;;;;;;13.35;8.10;;;19.20;96.20;;;;;;4199645;28;20070;-58
2023/06/09 04:43:07;;;;;;;17.73;8.57;;;19.20;96.10;;;;;;4199493;28;20075;-59
2023/06/09 04:45:12;;;;;;;13.70;8.02;;;19.30;96.00;;;;;;4198698;28;20076;-58
2023/06/09 04:47:17;;;;;;;12.43;8.73;;;19.20;96.10;;;;;;4199565;28;20478;-59
2023/06/09 04:49:23;;;;;;;11.30;8.20;;;19.10;96.20;;;;;;4199609;28;20098;-57
2023/06/09 04:51:26;;;;;;;10.98;8.52;;;19.20;96.10;;;;;;4200923;28;20098;-57
2023/06/09 04:53:28;;;;;;;10.85;8.60;;;19.20;96.10;;;;;;4216108;28;20044;-58
2023/06/09 04:55:30;;;;;;;13.13;8.18;;;19.20;96.10;;;;;;4215683;28;20047;-60
2023/06/09 04:57:32;;;;;;;14.50;8.15;;;19.20;96.00;;;;;;4216232;28;20066;-59
2023/06/09 04:59:36;;;;;;;15.10;8.18;;;19.30;95.90;;;;;;4198077;28;20048;-59
2023/06/09 05:01:46;;;;;;;15.70;8.48;;;19.30;95.80;;;;;;4214550;28;20070;-60
2023/06/09 05:03:48;;;;;;;10.88;8.20;;;19.30;95.90;;;;;;4216051;28;20078;-61
2023/06/09 05:05:51;;;;;;;10.13;7.15;;;19.30;95.90;;;;;;4215179;28;20062;-61
2023/06/09 05:07:53;;;;;;;14.07;7.47;;;19.40;95.90;;;;;;4215755;28;20047;-60
2023/06/09 05:09:55;;;;;;;12.88;7.72;;;19.40;95.80;;;;;;4216150;28;20048;-60
2023/06/09 05:11:57;;;;;;;10.00;7.53;;;19.50;95.60;;;;;;4216265;28;20040;-60
2023/06/09 05:13:59;;;;;;;16.38;8.60;;;19.50;95.50;;;;;;4216219;28;20487;-60
2023/06/09 05:16:04;;;;;;;16.45;8.38;;;19.50;95.50;;;;;;4215110;28;20050;-58
2023/06/09 05:18:08;;;;;;;14.65;8.18;;;19.50;95.40;;;;;;4216279;28;20044;-58
2023/06/09 05:20:10;;;;;;;16.57;8.10;;;19.60;95.40;;;;;;4216096;28;20521;-62
2023/06/09 05:22:13;;;;;;;10.80;7.57;;;19.60;95.30;;;;;;4216607;28;20441;-61
2023/06/09 05:24:15;;;;;;;15.13;7.70;;;19.70;95.20;;;;;;4217585;28;20068;-61
2023/06/09 05:26:18;;;;;;;17.48;8.32;;;19.70;95.00;;;;;;4195541;28;20459;-66
2023/06/09 05:28:22;;;;;;;14.05;8.13;;;19.80;95.10;;;;;;4199806;28;20051;-66
2023/06/09 05:30:24;;;;;;;27.50;8.30;;;19.80;94.90;;;;;;4199351;28;20055;-60
2023/06/09 05:32:27;;;;;;;18.08;7.35;;;19.80;95.00;;;;;;4199126;28;20068;-60
2023/06/09 05:34:31;;;;;;;18.45;7.70;;;19.80;94.80;;;;;;4198936;28;20072;-60
2023/06/09 05:36:33;;;;;;;17.50;7.35;;;19.90;95.00;;;;;;4197106;28;20075;-58
2023/06/09 05:38:35;;;;;;;22.88;8.10;;;19.90;94.60;;;;;;4198993;28;20413;-59
2023/06/09 05:40:38;;;;;;;20.15;8.13;;;20.00;94.50;;;;;;4198922;28;20075;-59
2023/06/09 05:42:40;;;;;;;15.73;7.35;;;20.00;94.40;;;;;;4198732;28;20054;-59
2023/06/09 05:44:43;;;;;;;10.50;6.45;;;19.90;94.20;;;;;;4198501;28;20407;-59
2023/06/09 05:46:45;;;;;;;12.77;7.65;;;19.90;94.50;;;;;;4197653;28;20560;-59
2023/06/09 05:48:50;;;;;;;14.13;7.80;;;19.90;94.50;;;;;;4180688;28;20049;-60
2023/06/09 05:50:53;;;;;;;12.10;7.68;;;19.90;94.40;;;;;;4198555;28;20058;-60
2023/06/09 05:52:55;;;;;;;15.73;8.20;;;19.90;94.40;;;;;;4194328;28;20049;-59
2023/06/09 05:54:57;;;;;;;10.43;6.85;;;20.10;94.30;;;;;;4215551;28;20048;-59
2023/06/09 05:56:59;;;;;;;15.35;8.18;;;20.10;94.40;;;;;;4214188;28;20133;-60
2023/06/09 05:59:04;;;;;;;15.02;7.90;;;20.20;94.10;;;;;;4215113;28;20054;-61
2023/06/09 06:01:07;;;;;;;19.42;7.55;;;20.20;93.90;;;;;;4215457;28;20086;-60
2023/06/09 06:03:10;;;;;;;18.55;8.43;;;20.20;94.00;;;;;;4215438;28;20151;-60
2023/06/09 06:05:14;;;;;;;25.73;8.18;;;20.20;94.00;;;;;;4215125;28;20500;-59
2023/06/09 06:07:18;;;;;;;19.60;8.13;;;20.10;94.00;;;;;;4215049;28;20052;-64
2023/06/09 06:09:21;;;;;;;20.10;8.35;;;20.10;94.00;;;;;;4215626;28;20481;-60
2023/06/09 06:11:23;;;;;;;20.15;8.85;;;20.10;93.90;;;;;;4215314;28;20071;-59
2023/06/09 06:13:25;;;;;;;18.38;7.63;;;20.30;93.80;;;;;;4215066;28;20044;-62
2023/06/09 06:15:27;;;;;;;13.95;7.20;;;20.20;93.90;;;;;;4213977;28;20098;-62
2023/06/09 06:17:29;;;;;;;9.55;6.85;;;20.30;93.70;;;;;;4214727;28;20397;-60
2023/06/09 06:19:31;;;;;;;22.13;8.10;;;20.40;93.50;;;;;;4214328;28;20067;-60
2023/06/09 06:21:36;;;;;;;21.63;7.20;;;20.50;93.40;;;;;;4214886;28;20120;-60
2023/06/09 06:23:39;;;;;;;24.95;7.70;;;20.60;93.40;;;;;;4214717;28;20044;-60
2023/06/09 06:25:42;;;;;;;19.23;7.78;;;20.70;93.30;;;;;;4213728;28;20051;-60
2023/06/09 06:27:44;;;;;;;15.25;7.93;;;20.70;93.20;;;;;;4214420;28;20040;-60
2023/06/09 06:29:49;;;;;;;23.13;7.38;;;20.80;93.20;;;;;;4214611;28;20040;-60
2023/06/09 06:31:51;;;;;;;20.58;7.22;;;20.90;93.00;;;;;;4215041;28;20122;-60
2023/06/09 06:33:54;;;;;;;30.58;8.20;;;20.90;92.70;;;;;;4196743;28;20516;-60
2023/06/09 06:35:58;;;;;;;22.77;7.05;;;21.00;92.70;;;;;;4213688;28;20040;-60
2023/06/09 06:38:02;;;;;;;32.60;8.32;;;21.10;92.50;;;;;;4214695;28;20127;-60
2023/06/09 06:40:08;;;;;;;19.80;7.80;;;21.20;92.30;;;;;;4196586;28;20133;-60
2023/06/09 06:42:10;;;;;;;16.55;6.40;;;21.40;92.20;;;;;;4214561;28;20044;-59
2023/06/09 06:44:12;;;;;;;18.58;6.43;;;21.40;91.90;;;;;;4214200;28;20051;-60
2023/06/09 06:46:17;;;;;;;17.10;6.72;;;21.40;91.40;;;;;;4195408;28;20047;-59
2023/06/09 06:48:19;;;;;;;9.27;6.28;;;21.40;91.30;;;;;;4213281;28;20048;-57
2023/06/09 06:50:21;;;;;;;13.73;6.30;;;21.40;91.20;;;;;;4214345;28;20048;-58
2023/06/09 06:52:27;;;;;;;19.52;5.90;;;21.50;91.20;;;;;;4214252;28;20089;-58
2023/06/09 06:54:30;;;;;;;18.85;6.78;;;21.50;90.90;;;;;;4214516;28;20533;-60
2023/06/09 06:56:32;;;;;;;25.45;6.45;;;21.70;91.00;;;;;;4195202;28;20183;-59
2023/06/09 06:58:34;;;;;;;19.33;6.75;;;21.80;90.80;;;;;;4214176;28;20072;-58
2023/06/09 07:00:37;;;;;;;13.60;5.68;;;22.00;90.70;;;;;;4214361;28;20044;-60
2023/06/09 07:02:39;;;;;;;19.35;6.60;;;22.20;90.30;;;;;;4213862;28;20101;-61
2023/06/09 07:04:42;;;;;;;25.55;7.00;;;22.50;90.20;;;;;;4214277;28;20071;-61
2023/06/09 07:06:44;;;;;;;22.88;6.57;;;22.50;89.40;;;;;;4213187;28;20048;-58
2023/06/09 07:08:46;;;;;;;20.70;7.00;;;22.60;89.20;;;;;;4214062;28;20052;-59
2023/06/09 07:10:50;;;;;;;12.80;6.32;;;22.70;88.90;;;;;;4214113;28;20481;-58
2023/06/09 07:12:52;;;;;;;16.50;6.35;;;22.80;88.50;;;;;;4214142;28;20044;-59
2023/06/09 07:14:56;;;;;;;12.05;5.88;;;22.90;88.40;;;;;;4214103;28;20055;-59
2023/06/09 07:16:58;;;;;;;13.05;6.18;;;23.10;88.20;;;;;;4212711;28;20051;-62
2023/06/09 07:19:00;;;;;;;16.20;6.13;;;23.30;87.30;;;;;;4196462;28;20071;-64
2023/06/09 07:21:02;;;;;;;21.00;6.25;;;23.40;86.70;;;;;;4214746;28;20465;-64
2023/06/09 07:23:06;;;;;;;21.30;6.95;;;23.40;86.30;;;;;;4214897;28;20048;-59
2023/06/09 07:25:09;;;;;;;19.80;6.45;;;23.50;86.00;;;;;;4214629;28;20130;-64
2023/06/09 07:27:12;;;;;;;32.45;6.95;;;23.50;86.00;;;;;;4212876;28;20123;-58
2023/06/09 07:29:15;;;;;;;17.00;6.30;;;23.50;88.50;;;;;;4214013;28;20048;-57
2023/06/09 07:31:17;;;;;;;16.70;6.10;;;23.50;87.80;;;;;;4213726;28;20044;-58
2023/06/09 07:33:19;;;;;;;17.33;6.05;;;23.50;87.50;;;;;;4213709;28;20043;-58
2023/06/09 07:35:23;;;;;;;15.25;5.93;;;23.70;88.30;;;;;;4213831;28;20048;-58
2023/06/09 07:37:25;;;;;;;20.23;6.88;;;23.80;86.10;;;;;;4212666;28;20078;-58
2023/06/09 07:39:27;;;;;;;16.90;6.50;;;23.80;84.80;;;;;;4196023;28;20123;-58
2023/06/09 07:41:30;;;;;;;11.93;6.45;;;24.00;85.70;;;;;;4214028;28;20116;-58
2023/06/09 07:43:34;;;;;;;19.83;6.38;;;24.00;85.40;;;;;;4213696;28;20480;-58
2023/06/09 07:45:36;;;;;;;20.30;6.00;;;24.10;84.50;;;;;;4213304;28;20044;-58
2023/06/09 07:47:38;;;;;;;17.00;5.60;;;24.20;84.50;;;;;;4212657;28;20044;-58
2023/06/09 07:49:40;;;;;;;15.35;5.90;;;24.20;84.40;;;;;;4214348;28;20485;-58
2023/06/09 07:51:46;;;;;;;14.60;5.63;;;24.40;84.40;;;;;;4214245;28;20048;-58
2023/06/09 07:53:48;;;;;;;16.80;6.63;;;24.60;84.60;;;;;;4214642;28;20080;-58
2023/06/09 07:55:50;;;;;;;13.98;5.72;;;24.70;82.80;;;;;;4213192;28;20052;-59
2023/06/09 07:57:53;;;;;;;14.93;5.90;;;24.70;82.80;;;;;;4213780;28;20070;-57
2023/06/09 07:59:56;;;;;;;18.70;6.53;;;24.70;83.10;;;;;;4214896;28;20500;-58
2023/06/09 08:01:58;;;;;;;22.27;6.15;;;24.80;83.20;;;;;;4217190;28;20044;-58
2023/06/09 08:04:03;;;;;;;12.88;5.53;;;24.90;82.70;;;;;;4217583;28;20044;-59
2023/06/09 08:06:07;;;;;;;16.75;5.68;;;25.10;83.00;;;;;;4216069;28;20537;-59
2023/06/09 08:08:10;;;;;;;15.13;6.32;;;25.10;82.10;;;;;;4216991;28;20047;-60
2023/06/09 08:10:12;;;;;;;21.92;5.90;;;25.10;81.50;;;;;;4216974;28;20101;-58
2023/06/09 08:12:15;;;;;;;21.25;5.97;;;25.00;82.00;;;;;;4217045;28;20055;-59
2023/06/09 08:14:17;;;;;;;12.68;6.07;;;25.00;81.90;;;;;;4217084;28;20468;-58
2023/06/09 08:16:21;;;;;;;20.60;6.53;;;25.00;82.60;;;;;;4215671;28;20048;-59
2023/06/09 08:18:23;;;;;;;32.70;11.43;;;25.20;82.00;;;;;;4216937;28;20105;-59
2023/06/09 08:20:25;;;;;;;21.42;8.75;;;25.30;82.10;;;;;;4216821;28;20048;-59
2023/06/09 08:22:27;;;;;;;16.85;7.07;;;25.30;81.40;;;;;;4216926;28;20056;-58
2023/06/09 08:24:29;;;;;;;15.63;5.97;;;25.30;81.20;;;;;;4216949;28;20547;-58
2023/06/09 08:26:31;;;;;;;8.60;6.30;;;25.30;81.20;;;;;;4215511;28;20067;-60
2023/06/09 08:28:33;;;;;;;13.20;6.82;;;25.30;81.00;;;;;;4216806;28;20083;-60
2023/06/09 08:30:36;;;;;;;12.98;5.88;;;25.40;81.20;;;;;;4198621;28;20110;-58
2023/06/09 08:32:40;;;;;;;16.50;6.38;;;25.40;80.70;;;;;;4216484;28;20048;-62
2023/06/09 08:34:42;;;;;;;20.55;7.00;;;25.60;80.90;;;;;;4216829;28;20238;-58
2023/06/09 08:36:45;;;;;;;18.48;5.63;;;25.70;80.60;;;;;;4215628;28;20432;-58
2023/06/09 08:38:47;;;;;;;12.55;5.45;;;25.70;80.60;;;;;;4216637;28;20052;-58
2023/06/09 08:40:50;;;;;;;19.77;6.25;;;25.90;80.30;;;;;;4216542;28;20551;-58
2023/06/09 08:42:55;;;;;;;15.73;6.47;;;26.00;80.60;;;;;;4216246;28;20559;-58
2023/06/09 08:45:01;;;;;;;12.40;5.45;;;26.10;79.90;;;;;;4215955;28;20059;-57
2023/06/09 08:47:11;;;;;;;20.92;6.25;;;26.10;80.10;;;;;;4197782;28;20538;-59
2023/06/09 08:49:16;;;;;;;20.25;6.13;;;26.10;79.40;;;;;;4216345;28;20072;-60
2023/06/09 08:51:21;;;;;;;14.68;5.57;;;26.20;79.30;;;;;;4216171;28;20040;-58
2023/06/09 08:53:24;;;;;;;27.63;6.45;;;26.20;79.00;;;;;;4216256;28;20052;-58
2023/06/09 08:55:27;;;;;;;19.60;5.55;;;26.30;79.00;;;;;;4198291;28;20127;-57
2023/06/09 08:57:30;;;;;;;17.33;5.40;;;26.40;78.90;;;;;;4197038;28;20045;-60
2023/06/09 08:59:34;;;;;;;18.20;6.90;;;26.30;78.10;;;;;;4215885;28;20036;-61
2023/06/09 09:01:38;;;;;;;15.48;5.55;;;26.10;78.00;;;;;;4216089;28;20126;-60
2023/06/09 09:03:40;;;;;;;11.20;5.43;;;26.10;77.60;;;;;;4216156;28;20513;-60
2023/06/09 09:05:44;;;;;;;12.48;5.07;;;26.10;78.60;;;;;;4216215;28;20646;-60
2023/06/09 09:07:47;;;;;;;13.33;7.73;;;26.20;78.70;;;;;;4214998;28;20055;-62
2023/06/09 09:09:49;;;;;;;15.70;6.07;;;26.30;77.50;;;;;;4215976;28;20054;-62
2023/06/09 09:11:52;;;;;;;13.68;5.45;;;26.40;77.30;;;;;;4214874;28;20052;-62
2023/06/09 09:13:54;;;;;;;21.90;5.95;;;26.60;77.40;;;;;;4215804;28;20048;-63
2023/06/09 09:15:58;;;;;;;14.45;5.60;;;26.70;77.90;;;;;;4215390;28;20044;-60
2023/06/09 09:18:00;;;;;;;10.90;4.63;;;26.80;77.50;;;;;;4215533;28;20040;-60
2023/06/09 09:20:08;;;;;;;16.08;5.85;;;27.00;77.50;;;;;;4215623;28;20515;-59
2023/06/09 09:22:12;;;;;;;16.48;6.03;;;27.00;76.50;;;;;;4215541;28;20050;-60
2023/06/09 09:24:15;;;;;;;17.58;6.68;;;27.10;76.90;;;;;;4215630;28;20441;-61
2023/06/09 09:26:26;;;;;;;28.08;6.85;;;27.20;76.70;;;;;;4214421;28;20048;-62
2023/06/09 09:28:38;;;;;;;21.92;6.15;;;27.30;76.80;;;;;;4197176;28;20071;-59
2023/06/09 09:30:45;;;;;;;12.52;5.10;;;27.30;75.80;;;;;;4215742;28;20044;-59
2023/06/09 09:32:48;;;;;;;15.30;5.47;;;27.30;75.30;;;;;;4215791;28;20078;-59
2023/06/09 09:34:50;;;;;;;13.32;5.15;;;27.20;75.30;;;;;;4215669;28;20067;-62
2023/06/09 09:36:55;;;;;;;12.45;5.63;;;27.30;75.60;;;;;;4214948;28;20130;-60
2023/06/09 09:39:02;;;;;;;20.65;10.10;;;27.50;75.10;;;;;;4215576;28;20048;-60
2023/06/09 09:41:05;;;;;;;25.52;11.63;;;27.50;74.50;;;;;;4215292;28;20071;-59
2023/06/09 09:43:10;;;;;;;18.20;8.18;;;27.40;74.70;;;;;;4214830;28;20040;-59
2023/06/09 09:45:12;;;;;;;14.27;5.85;;;27.40;75.00;;;;;;4197476;28;20041;-59
2023/06/09 09:47:19;;;;;;;46.05;27.08;;;27.40;74.70;;;;;;4214181;28;20418;-57
2023/06/09 09:49:22;;;;;;;58.35;39.70;;;27.60;75.20;;;;;;4215357;28;20057;-63
2023/06/09 09:51:24;;;;;;;49.40;36.60;;;27.90;75.00;;;;;;4215147;28;20044;-62
2023/06/09 09:53:27;;;;;;;25.95;12.10;;;28.00;74.70;;;;;;4215243;28;20044;-63
2023/06/09 09:55:31;;;;;;;26.77;17.98;;;28.10;73.10;;;;;;4215087;28;20055;-61
2023/06/09 09:57:35;;;;;;;31.83;20.17;;;28.00;72.60;;;;;;4210934;28;20044;-61
2023/06/09 09:59:37;;;;;;;11.73;6.90;;;28.10;72.90;;;;;;4206991;28;20044;-62
2023/06/09 10:01:40;;;;;;;6.65;4.90;;;28.20;73.20;;;;;;4209944;28;20040;-62
2023/06/09 10:03:44;;;;;;;11.40;5.53;;;28.30;72.00;;;;;;4210878;28;20171;-63
2023/06/09 10:05:47;;;;;;;9.52;5.32;;;28.40;71.40;;;;;;4208977;28;20079;-62
2023/06/09 10:07:55;;;;;;;12.65;4.90;;;28.30;71.80;;;;;;4204113;28;20048;-62
2023/06/09 10:09:58;;;;;;;11.27;4.80;;;28.30;72.10;;;;;;4213833;28;20049;-60
2023/06/09 10:12:03;;;;;;;9.27;4.50;;;28.40;72.10;;;;;;4209512;28;20480;-60
2023/06/09 10:14:05;;;;;;;9.48;4.80;;;28.50;71.70;;;;;;4208137;28;20044;-59
2023/06/09 10:16:10;;;;;;;19.52;5.00;;;28.50;71.60;;;;;;4203846;28;20127;-60
2023/06/09 10:18:12;;;;;;;;;;;28.50;71.50;;;;;;4212310;28;20040;-57
2023/06/09 10:20:14;;;;;;;9.27;4.75;;;28.50;70.70;;;;;;4212417;28;19924;-59
2023/06/09 10:22:18;;;;;;;11.85;4.75;;;28.50;70.90;;;;;;4209990;28;20105;-59
2023/06/09 10:24:22;;;;;;;9.15;4.97;;;28.70;71.10;;;;;;4211295;28;20071;-57
2023/06/09 10:26:25;;;;;;;12.15;5.10;;;28.70;71.50;;;;;;4206511;28;20104;-60
2023/06/09 10:28:29;;;;;;;14.50;4.43;;;28.70;69.40;;;;;;4209161;28;20044;-61
2023/06/09 10:30:32;;;;;;;12.15;4.63;;;28.80;69.20;;;;;;4209735;28;20064;-61
2023/06/09 10:32:38;;;;;;;6.57;4.25;;;28.80;69.10;;;;;;4208169;28;20044;-60
2023/06/09 10:34:46;;;;;;;9.77;4.35;;;28.90;69.40;;;;;;4213879;28;20414;-61